Time;durP1;ratioP1;P1;durP2;ratioP2;P2;SDS_P1;SDS_P2;PMS_P1;PMS_P2;Temp;Humidity;BMP_temperature;BMP_pressure;BME280_temperature;BME280_humidity;BME280_pressure;Samples;Min_cycle;Max_cycle;Signal;HPM_P1;HPM_P2
2023/10/27 09:46:12;;;;;;;;;3.75;1.00;;;;;;;;5106028;27;13574;-71
2023/10/27 09:48:41;;;;;;;;;2.67;1.33;;;;;;;;5065218;28;10287;-74
2023/10/27 09:51:16;;;;;;;;;0.50;0.50;;;;;;;;5045732;28;8975;-73
2023/10/27 09:53:44;;;;;;;;;1.67;1.00;;;;;;;;5045502;28;8836;-75
2023/10/27 09:56:09;;;;;;;;;1.00;1.00;;;;;;;;5047138;28;9129;-74
2023/10/27 09:58:35;;;;;;;;;3.67;1.00;;;;;;;;5046920;28;8894;-72
2023/10/27 10:01:01;;;;;;;;;5.33;1.00;;;;;;;;5047000;28;8799;-71
2023/10/27 10:03:27;;;;;;;;;2.00;0.00;;;;;;;;5016361;28;11266;-71
2023/10/27 10:06:12;;;;;;;;;4.33;2.00;;;;;;;;5046586;28;8927;-68
2023/10/27 10:08:37;;;;;;;;;1.33;1.00;;;;;;;;5046828;28;8930;-68
2023/10/27 10:11:12;;;;;;;;;1.67;1.00;;;;;;;;5047059;28;9696;-67
2023/10/27 10:13:37;;;;;;;;;0.00;0.00;;;;;;;;5061961;28;8835;-69
2023/10/27 10:16:03;;;;;;;;;4.33;1.67;;;;;;;;5048208;28;9034;-70
2023/10/27 10:18:38;;;;;;;;;0.00;0.00;;;;;;;;5045239;28;8820;-70
2023/10/27 10:21:06;;;;;;;;;1.00;0.00;;;;;;;;5046759;28;9611;-70
2023/10/27 10:23:37;;;;;;;;;1.67;0.00;;;;;;;;5045403;28;9093;-73
2023/10/27 10:26:03;;;;;;;;;2.00;0.00;;;;;;;;5046563;28;9154;-71
2023/10/27 10:28:29;;;;;;;;;3.00;2.00;;;;;;;;5045782;28;9135;-70
2023/10/27 10:31:07;;;;;;;;;1.33;0.00;;;;;;;;5045172;28;9486;-73
2023/10/27 10:33:36;;;;;;;;;5.00;0.00;;;;;;;;5045239;28;9273;-69
2023/10/27 10:36:11;;;;;;;;;3.00;1.00;;;;;;;;5045076;28;9247;-68
2023/10/27 10:38:37;;;;;;;;;1.00;0.00;;;;;;;;5044904;28;9186;-69
2023/10/27 10:41:02;;;;;;;;;2.00;1.67;;;;;;;;5061578;28;8838;-68
2023/10/27 10:43:33;;;;;;;;;0.33;0.33;;;;;;;;5046252;28;8816;-68
2023/10/27 10:46:00;;;;;;;;;0.00;0.00;;;;;;;;5046218;28;8846;-68
2023/10/27 10:48:35;;;;;;;;;1.00;0.00;;;;;;;;5046111;28;8772;-68
2023/10/27 10:51:05;;;;;;;;;2.00;1.00;;;;;;;;5046309;28;8795;-68
2023/10/27 10:53:30;;;;;;;;;1.00;0.00;;;;;;;;5046119;28;8803;-68
2023/10/27 10:56:00;;;;;;;;;1.00;1.00;;;;;;;;5041697;28;8815;-69
2023/10/27 10:58:30;;;;;;;;;1.00;0.00;;;;;;;;5032790;28;8804;-68
2023/10/27 11:00:56;;;;;;;;;1.25;0.00;;;;;;;;5032739;28;8934;-69
2023/10/27 11:03:22;;;;;;;;;0.00;0.00;;;;;;;;5032733;28;9279;-69
2023/10/27 11:05:47;;;;;;;;;0.25;0.00;;;;;;;;5032673;28;9448;-69
2023/10/27 11:08:21;;;;;;;;;0.67;0.67;;;;;;;;5032748;28;8776;-69
2023/10/27 11:10:47;;;;;;;;;2.00;0.25;;;;;;;;5032488;28;9506;-69
2023/10/27 11:13:12;;;;;;;;;5.67;1.00;;;;;;;;5047764;28;8886;-69
2023/10/27 11:15:40;;;;;;;;;1.00;1.00;;;;;;;;5032646;28;8820;-69
2023/10/27 11:18:07;;;;;;;;;1.00;0.00;;;;;;;;5032246;28;8812;-69
2023/10/27 11:20:35;;;;;;;;;2.25;1.00;;;;;;;;5032371;28;8792;-69
2023/10/27 11:23:07;;;;;;;;;1.00;0.00;;;;;;;;5032464;28;8795;-69
2023/10/27 11:25:33;;;;;;;;;0.50;0.25;;;;;;;;5032197;28;8820;-68
2023/10/27 11:28:16;;;;;;;;;0.00;0.00;;;;;;;;5032200;28;8792;-68
2023/10/27 11:31:00;;;;;;;;;0.67;0.00;;;;;;;;5032451;28;8808;-69
2023/10/27 11:33:26;;;;;;;;;1.67;1.00;;;;;;;;5047163;28;8895;-68
2023/10/27 11:35:52;;;;;;;;;2.67;0.00;;;;;;;;5047146;28;9817;-69
2023/10/27 11:38:17;;;;;;;;;0.00;0.00;;;;;;;;5047560;28;8829;-68
2023/10/27 11:40:43;;;;;;;;;1.00;0.00;;;;;;;;5047297;28;9662;-68
2023/10/27 11:43:08;;;;;;;;;1.00;0.00;;;;;;;;5047338;28;8800;-68
2023/10/27 11:45:34;;;;;;;;;1.00;0.00;;;;;;;;5047323;28;8870;-68
2023/10/27 11:47:59;;;;;;;;;0.00;0.00;;;;;;;;5031719;28;8997;-68
2023/10/27 11:50:24;;;;;;;;;0.00;0.00;;;;;;;;5031566;28;8792;-69
2023/10/27 11:52:53;;;;;;;;;2.33;1.00;;;;;;;;5032105;28;8798;-69
2023/10/27 11:55:19;;;;;;;;;1.33;1.00;;;;;;;;5031926;28;8784;-69
2023/10/27 11:57:44;;;;;;;;;0.00;0.00;;;;;;;;5031827;28;9347;-69
2023/10/27 12:00:13;;;;;;;;;0.00;0.00;;;;;;;;5031738;28;9206;-69
2023/10/27 12:02:38;;;;;;;;;0.00;0.00;;;;;;;;5031370;28;8914;-71
2023/10/27 12:05:12;;;;;;;;;2.33;0.00;;;;;;;;5031364;28;9874;-69
2023/10/27 12:07:38;;;;;;;;;2.00;0.00;;;;;;;;5030618;28;8893;-68
2023/10/27 12:10:03;;;;;;;;;0.33;0.00;;;;;;;;5031369;28;10064;-68
2023/10/27 12:12:29;;;;;;;;;0.67;0.00;;;;;;;;5031573;28;8784;-68
2023/10/27 12:14:55;;;;;;;;;1.00;0.00;;;;;;;;5031489;28;8800;-68
2023/10/27 12:17:20;;;;;;;;;1.00;1.00;;;;;;;;5046596;28;9153;-69
2023/10/27 12:19:45;;;;;;;;;0.33;0.33;;;;;;;;5031061;28;8873;-69
2023/10/27 12:22:11;;;;;;;;;0.00;0.00;;;;;;;;5031198;28;8897;-68
2023/10/27 12:24:36;;;;;;;;;3.00;1.00;;;;;;;;5031135;28;8843;-69
2023/10/27 12:27:01;;;;;;;;;0.00;0.00;;;;;;;;5031365;28;8788;-69
2023/10/27 12:29:27;;;;;;;;;1.67;0.00;;;;;;;;5031114;28;8800;-69
2023/10/27 12:31:53;;;;;;;;;1.67;0.00;;;;;;;;5031503;28;8816;-70
2023/10/27 12:34:18;;;;;;;;;1.67;1.00;;;;;;;;5031000;28;8815;-69
2023/10/27 12:36:45;;;;;;;;;1.00;0.00;;;;;;;;5046264;28;8835;-69
2023/10/27 12:39:11;;;;;;;;;1.00;1.00;;;;;;;;5031694;28;8807;-68
2023/10/27 12:41:36;;;;;;;;;2.00;0.00;;;;;;;;5031005;28;9026;-68
2023/10/27 12:44:01;;;;;;;;;2.00;0.00;;;;;;;;5030473;28;8828;-68
2023/10/27 12:46:29;;;;;;;;;4.67;0.33;;;;;;;;5030672;28;8788;-69
2023/10/27 12:48:54;;;;;;;;;6.50;4.75;;;;;;;;5046175;28;8816;-70
2023/10/27 12:51:20;;;;;;;;;7.00;6.00;;;;;;;;5030746;28;10228;-68
2023/10/27 12:53:48;;;;;;;;;5.00;1.50;;;;;;;;5030796;28;8811;-70
2023/10/27 12:56:19;;;;;;;;;1.67;0.67;;;;;;;;5030767;28;8784;-70
2023/10/27 12:58:54;;;;;;;;;3.67;1.33;;;;;;;;5030534;28;9154;-68
2023/10/27 13:01:21;;;;;;;;;1.00;1.00;;;;;;;;5030693;28;9129;-68
2023/10/27 13:03:47;;;;;;;;;0.00;0.00;;;;;;;;5030254;28;9026;-66
2023/10/27 13:06:18;;;;;;;;;3.00;0.00;;;;;;;;5008388;28;9171;-69
2023/10/27 13:08:43;;;;;;;;;1.33;0.67;;;;;;;;5025626;28;9671;-68
2023/10/27 13:11:09;;;;;;;;;3.33;0.00;;;;;;;;5010539;28;9246;-75
2023/10/27 13:13:35;;;;;;;;;1.00;0.00;;;;;;;;5010072;28;9551;-68
2023/10/27 13:16:00;;;;;;;;;2.00;1.67;;;;;;;;5025534;28;8795;-70
2023/10/27 13:18:27;;;;;;;;;2.00;1.00;;;;;;;;5010090;28;8827;-71
2023/10/27 13:20:52;;;;;;;;;0.00;0.00;;;;;;;;5009961;28;8826;-69
2023/10/27 13:23:18;;;;;;;;;0.00;0.00;;;;;;;;5010373;28;9202;-69
2023/10/27 13:25:44;;;;;;;;;2.00;0.67;;;;;;;;5010185;28;9528;-70
2023/10/27 13:28:10;;;;;;;;;1.00;1.00;;;;;;;;5010208;28;8791;-70
2023/10/27 13:30:38;;;;;;;;;0.00;0.00;;;;;;;;5010104;28;9430;-72
2023/10/27 13:33:03;;;;;;;;;0.25;0.25;;;;;;;;5021096;28;8792;-72
2023/10/27 13:35:29;;;;;;;;;0.33;0.00;;;;;;;;5044790;28;9483;-70
2023/10/27 13:38:06;;;;;;;;;1.75;1.00;;;;;;;;5029934;28;9594;-75
2023/10/27 13:40:35;;;;;;;;;0.25;0.00;;;;;;;;5029914;28;8811;-70
2023/10/27 13:43:03;;;;;;;;;2.50;1.75;;;;;;;;5029879;28;9475;-69
2023/10/27 13:45:29;;;;;;;;;0.00;0.00;;;;;;;;5029619;28;9678;-69
2023/10/27 13:47:54;;;;;;;;;4.00;0.00;;;;;;;;5029614;28;9344;-70
2023/10/27 13:50:22;;;;;;;;;1.00;0.50;;;;;;;;5029953;28;8846;-70
2023/10/27 13:52:51;;;;;;;;;5.00;1.00;;;;;;;;5029819;28;8800;-70
2023/10/27 13:55:16;;;;;;;;;4.25;0.50;;;;;;;;5029633;28;9454;-70
2023/10/27 13:57:48;;;;;;;;;6.33;0.67;;;;;;;;5045065;28;9423;-70
2023/10/27 14:00:16;;;;;;;;;2.00;1.00;;;;;;;;5029624;28;8800;-70
2023/10/27 14:02:42;;;;;;;;;2.33;1.00;;;;;;;;5029658;28;9516;-70
2023/10/27 14:05:08;;;;;;;;;2.50;0.00;;;;;;;;5029644;28;9300;-69
2023/10/27 14:07:36;;;;;;;;;1.75;0.75;;;;;;;;5030060;28;9441;-70
2023/10/27 14:10:03;;;;;;;;;0.25;0.00;;;;;;;;5029448;28;8900;-70
2023/10/27 14:12:28;;;;;;;;;4.50;1.00;;;;;;;;5029466;28;9534;-69
2023/10/27 14:14:54;;;;;;;;;2.00;0.33;;;;;;;;5029597;28;9643;-70
2023/10/27 14:17:19;;;;;;;;;2.00;1.00;;;;;;;;5029573;28;8866;-69
2023/10/27 14:19:44;;;;;;;;;1.25;1.25;;;;;;;;5029316;28;8795;-70
2023/10/27 14:22:10;;;;;;;;;1.50;1.00;;;;;;;;5029442;28;8795;-70
2023/10/27 14:24:35;;;;;;;;;6.25;2.00;;;;;;;;5029346;28;8811;-70
2023/10/27 14:27:00;;;;;;;;;3.00;0.25;;;;;;;;5029484;28;8780;-70
2023/10/27 14:29:26;;;;;;;;;1.00;1.00;;;;;;;;5029375;28;8866;-70
2023/10/27 14:31:57;;;;;;;;;1.00;0.25;;;;;;;;5031790;28;8847;-70
2023/10/27 14:34:22;;;;;;;;;0.75;0.75;;;;;;;;5048214;28;9607;-70
2023/10/27 14:36:49;;;;;;;;;2.00;1.00;;;;;;;;5033144;28;9525;-70
2023/10/27 14:39:15;;;;;;;;;4.75;1.75;;;;;;;;5033015;28;8978;-70
2023/10/27 14:41:41;;;;;;;;;3.33;0.00;;;;;;;;5033053;28;10148;-69
2023/10/27 14:44:06;;;;;;;;;1.00;0.75;;;;;;;;5032710;28;9435;-70
2023/10/27 14:46:34;;;;;;;;;0.67;0.67;;;;;;;;5033018;28;8893;-70
2023/10/27 14:49:00;;;;;;;;;5.00;4.00;;;;;;;;5032687;28;8800;-70
2023/10/27 14:51:25;;;;;;;;;0.00;0.00;;;;;;;;5047834;28;9650;-69
2023/10/27 14:53:51;;;;;;;;;2.00;1.00;;;;;;;;5032797;28;8838;-69
2023/10/27 14:56:16;;;;;;;;;0.67;0.00;;;;;;;;5031432;28;8827;-70
2023/10/27 14:58:45;;;;;;;;;1.00;0.00;;;;;;;;5032715;28;8827;-70
2023/10/27 15:01:11;;;;;;;;;1.33;0.67;;;;;;;;5032706;28;8776;-70
2023/10/27 15:03:37;;;;;;;;;0.67;0.00;;;;;;;;5047853;28;9226;-70
2023/10/27 15:06:05;;;;;;;;;4.00;0.00;;;;;;;;5032404;28;11603;-70
2023/10/27 15:08:31;;;;;;;;;3.50;1.25;;;;;;;;5032539;28;9865;-70
2023/10/27 15:10:57;;;;;;;;;1.00;0.00;;;;;;;;5032336;28;9440;-70
2023/10/27 15:13:28;;;;;;;;;4.00;0.33;;;;;;;;5032442;28;8879;-70
2023/10/27 15:16:06;;;;;;;;;2.67;0.00;;;;;;;;5032577;28;8946;-70
2023/10/27 15:18:31;;;;;;;;;2.25;0.00;;;;;;;;5032221;28;9337;-70
2023/10/27 15:21:02;;;;;;;;;0.75;0.00;;;;;;;;5032453;28;9660;-69
2023/10/27 15:23:27;;;;;;;;;1.00;0.25;;;;;;;;5032291;28;8816;-70
2023/10/27 15:25:58;;;;;;;;;3.50;2.00;;;;;;;;5032418;28;9590;-69
2023/10/27 15:28:27;;;;;;;;;2.50;1.75;;;;;;;;5032105;28;8810;-70
2023/10/27 15:31:03;;;;;;;;;1.00;1.00;;;;;;;;5047443;28;9902;-70
2023/10/27 15:33:29;;;;;;;;;4.50;2.00;;;;;;;;5014831;23;9743;-77
2023/10/27 15:35:57;;;;;;;;;2.00;1.00;;;;;;;;4974196;28;9533;-79
2023/10/27 15:38:23;;;;;;;;;1.00;1.00;;;;;;;;4974131;28;8935;-79
2023/10/27 15:40:49;;;;;;;;;4.50;2.75;;;;;;;;4974009;28;9644;-78
2023/10/27 15:43:14;;;;;;;;;2.00;1.00;;;;;;;;4988822;28;9710;-79
2023/10/27 15:45:40;;;;;;;;;2.00;1.25;;;;;;;;4973832;28;8841;-79
2023/10/27 15:48:06;;;;;;;;;3.00;1.00;;;;;;;;4973822;28;8782;-78
2023/10/27 15:50:33;;;;;;;;;1.00;1.00;;;;;;;;4973807;28;9541;-78
2023/10/27 15:52:58;;;;;;;;;6.00;3.00;;;;;;;;4973953;28;9002;-79
2023/10/27 15:55:24;;;;;;;;;2.33;0.00;;;;;;;;4974152;28;9692;-78
2023/10/27 15:57:49;;;;;;;;;5.50;1.75;;;;;;;;4974013;28;8785;-79
2023/10/27 16:00:14;;;;;;;;;3.00;3.00;;;;;;;;4973841;28;9516;-79
2023/10/27 16:02:39;;;;;;;;;6.50;1.00;;;;;;;;4990401;28;8825;-80
2023/10/27 16:05:08;;;;;;;;;8.50;8.00;;;;;;;;4973548;28;8880;-83
2023/10/27 16:07:33;;;;;;;;;25.50;21.50;;;;;;;;4973904;28;9562;-84
2023/10/27 16:10:00;;;;;;;;;14.00;11.00;;;;;;;;4973667;28;10855;-84
2023/10/27 16:12:26;;;;;;;;;4.00;2.00;;;;;;;;4973909;28;8777;-84
2023/10/27 16:14:53;;;;;;;;;7.00;3.00;;;;;;;;4973593;28;9944;-83
2023/10/27 16:17:18;;;;;;;;;1.75;1.50;;;;;;;;4973647;28;8843;-83
2023/10/27 16:19:44;;;;;;;;;2.75;1.75;;;;;;;;4973389;28;9572;-84
2023/10/27 16:22:10;;;;;;;;;10.75;7.00;;;;;;;;4973252;28;8793;-84
2023/10/27 16:24:37;;;;;;;;;5.50;4.75;;;;;;;;4973154;28;8848;-84
2023/10/27 16:27:02;;;;;;;;;4.25;2.00;;;;;;;;4988376;28;9850;-83
2023/10/27 16:29:28;;;;;;;;;2.50;2.00;;;;;;;;4971967;28;9532;-82
2023/10/27 16:31:56;;;;;;;;;3.00;1.75;;;;;;;;4992780;23;11357;-71
2023/10/27 16:34:22;;;;;;;;;3.00;2.00;;;;;;;;5012009;28;8842;-71
2023/10/27 16:36:50;;;;;;;;;7.00;2.00;;;;;;;;5010770;28;9554;-71
2023/10/27 16:39:28;;;;;;;;;;;;;;;;;;;;;
2023/10/27 16:42:10;;;;;;;;;2.00;2.00;;;;;;;;5010583;28;9512;-71
2023/10/27 16:45:12;;;;;;;;;4.00;3.00;;;;;;;;5025356;28;9537;-72
2023/10/27 16:48:08;;;;;;;;;;;;;;;;;;;;;
2023/10/27 16:51:12;;;;;;;;;;;;;;;;;;;;;
2023/10/27 16:54:16;;;;;;;;;2.75;1.75;;;;;;;;4948155;28;9757;-71
2023/10/27 16:57:08;;;;;;;;;4.25;3.25;;;;;;;;4948865;28;9636;-72
2023/10/27 17:06:18;;;;;;;;;2.75;2.00;;;;;;;;4907911;28;9618;-70
2023/10/27 17:09:31;;;;;;;;;3.50;2.00;;;;;;;;4949366;28;9406;-72
2023/10/27 17:11:48;;;;;;;;;4.75;3.75;;;;;;;;4946992;28;9500;-72
2023/10/27 17:14:16;;;;;;;;;2.50;2.00;;;;;;;;4933509;28;9605;-73
2023/10/27 17:20:36;;;;;;;;;;;;;;;;;;;;;
2023/10/27 17:29:28;;;;;;;;;4.25;3.00;;;;;;;;4799597;29;9455;-71
2023/10/27 17:31:53;;;;;;;;;4.50;2.50;;;;;;;;4856058;23;9610;-71
2023/10/27 17:34:18;;;;;;;;;4.00;2.75;;;;;;;;5007822;28;9713;-74
2023/10/27 17:36:45;;;;;;;;;4.25;2.75;;;;;;;;4990830;28;8767;-74
2023/10/27 17:39:12;;;;;;;;;3.50;3.00;;;;;;;;4990773;28;8819;-74
2023/10/27 17:41:37;;;;;;;;;5.50;3.00;;;;;;;;4990655;28;9490;-73
2023/10/27 17:44:07;;;;;;;;;3.00;2.75;;;;;;;;4990746;28;9751;-74
2023/10/27 17:46:33;;;;;;;;;7.75;3.00;;;;;;;;4990629;28;9195;-74
2023/10/27 17:48:58;;;;;;;;;4.00;3.50;;;;;;;;4990510;28;10442;-74
2023/10/27 17:51:23;;;;;;;;;5.75;3.00;;;;;;;;5005504;28;9559;-74
2023/10/27 17:53:49;;;;;;;;;2.25;1.25;;;;;;;;5005554;28;8795;-74
2023/10/27 17:56:15;;;;;;;;;4.75;3.75;;;;;;;;4990512;28;8818;-74
2023/10/27 17:58:40;;;;;;;;;7.75;3.00;;;;;;;;4990582;28;8791;-74
2023/10/27 18:01:07;;;;;;;;;6.00;3.00;;;;;;;;4989043;28;9756;-73
2023/10/27 18:03:33;;;;;;;;;2.00;1.00;;;;;;;;4991085;28;8779;-70
2023/10/27 18:05:59;;;;;;;;;1.75;0.25;;;;;;;;4991041;28;9559;-71
2023/10/27 18:08:24;;;;;;;;;3.50;1.00;;;;;;;;4994443;28;9417;-71
2023/10/27 18:10:50;;;;;;;;;2.25;2.25;;;;;;;;4994259;28;8846;-71
2023/10/27 18:13:16;;;;;;;;;4.25;2.00;;;;;;;;4994313;28;8822;-71
2023/10/27 18:15:42;;;;;;;;;3.50;1.50;;;;;;;;4994109;28;9592;-71
2023/10/27 18:18:08;;;;;;;;;3.00;2.50;;;;;;;;4994272;28;8981;-71
2023/10/27 18:20:40;;;;;;;;;4.00;2.50;;;;;;;;4994099;28;8821;-71
2023/10/27 18:23:05;;;;;;;;;3.50;2.00;;;;;;;;4994317;28;9724;-71
2023/10/27 18:25:31;;;;;;;;;3.50;2.00;;;;;;;;4994264;28;9939;-71
2023/10/27 18:27:57;;;;;;;;;1.75;1.00;;;;;;;;4994398;28;9498;-71
2023/10/27 18:30:23;;;;;;;;;3.75;1.75;;;;;;;;4992894;28;8838;-71
2023/10/27 18:32:48;;;;;;;;;3.25;3.25;;;;;;;;5009171;28;10178;-71
2023/10/27 18:35:17;;;;;;;;;5.75;2.00;;;;;;;;4992452;28;8831;-70
2023/10/27 18:37:43;;;;;;;;;4.00;3.00;;;;;;;;4993818;28;8787;-70
2023/10/27 18:40:08;;;;;;;;;2.75;0.75;;;;;;;;4993651;28;9859;-71
2023/10/27 18:42:36;;;;;;;;;5.25;2.25;;;;;;;;4993796;28;8881;-71
2023/10/27 18:45:01;;;;;;;;;2.50;1.00;;;;;;;;4993674;28;8823;-71
2023/10/27 18:47:29;;;;;;;;;1.25;1.25;;;;;;;;5008830;28;9671;-71
2023/10/27 18:49:55;;;;;;;;;2.25;0.00;;;;;;;;4993559;28;8872;-71
2023/10/27 18:52:20;;;;;;;;;0.00;0.00;;;;;;;;4993417;28;9768;-71
2023/10/27 18:54:45;;;;;;;;;1.50;0.50;;;;;;;;4993292;28;8838;-71
2023/10/27 18:57:12;;;;;;;;;1.00;1.00;;;;;;;;4993528;28;8817;-71
2023/10/27 18:59:38;;;;;;;;;0.75;0.75;;;;;;;;4993272;28;8806;-71
2023/10/27 19:02:03;;;;;;;;;1.00;1.00;;;;;;;;4992013;28;9500;-71
2023/10/27 19:04:30;;;;;;;;;0.50;0.00;;;;;;;;4993520;28;8821;-71
2023/10/27 19:06:55;;;;;;;;;0.00;0.00;;;;;;;;4993423;28;8787;-71
2023/10/27 19:09:20;;;;;;;;;2.00;1.00;;;;;;;;4993135;28;9760;-72
2023/10/27 19:11:46;;;;;;;;;1.50;1.00;;;;;;;;4993187;28;8809;-71
2023/10/27 19:14:11;;;;;;;;;2.00;1.00;;;;;;;;4992828;28;8883;-71
2023/10/27 19:16:36;;;;;;;;;2.00;2.00;;;;;;;;4992720;28;8791;-69
2023/10/27 19:19:02;;;;;;;;;0.00;0.00;;;;;;;;4992835;28;8839;-71
2023/10/27 19:21:27;;;;;;;;;1.00;0.75;;;;;;;;4992918;28;8888;-71
2023/10/27 19:23:56;;;;;;;;;1.75;1.00;;;;;;;;4992948;28;9584;-71
2023/10/27 19:26:22;;;;;;;;;2.00;1.00;;;;;;;;4992886;28;8956;-71
